createdAt,value
2022-12-14T00:01:25.497Z,5.28
2022-12-14T00:03:53.246Z,5.15
2022-12-14T00:06:27.820Z,4.78
2022-12-14T00:08:57.056Z,5.70
2022-12-14T00:11:24.917Z,5.00
2022-12-14T00:13:57.213Z,4.97
2022-12-14T00:16:25.568Z,5.40
2022-12-14T00:18:54.023Z,5.13
2022-12-14T00:21:21.686Z,5.32
2022-12-14T00:23:50.195Z,5.88
2022-12-14T00:26:19.796Z,6.00
2022-12-14T00:28:48.049Z,5.63
2022-12-14T00:31:15.361Z,5.57
2022-12-14T00:33:42.261Z,6.07
2022-12-14T00:36:10.501Z,5.88
2022-12-14T00:38:37.953Z,5.32
2022-12-14T00:41:04.723Z,5.18
2022-12-14T00:43:32.187Z,5.20
2022-12-14T00:45:58.757Z,5.45
2022-12-14T00:48:27.142Z,5.80
2022-12-14T00:50:55.489Z,5.75
2022-12-14T00:53:23.294Z,5.30
2022-12-14T00:55:50.000Z,6.20
2022-12-14T00:58:19.369Z,5.63
2022-12-14T01:00:48.223Z,5.27
2022-12-14T01:03:15.742Z,5.53
2022-12-14T01:05:48.965Z,5.38
2022-12-14T01:08:16.081Z,5.53
2022-12-14T01:10:42.520Z,5.57
2022-12-14T01:13:11.151Z,4.93
2022-12-14T01:15:38.109Z,5.45
2022-12-14T01:18:04.762Z,6.10
2022-12-14T01:20:31.827Z,5.97
2022-12-14T01:22:58.355Z,5.70
2022-12-14T01:25:25.157Z,5.57
2022-12-14T01:27:52.208Z,6.10
2022-12-14T01:30:19.217Z,5.15
2022-12-14T01:33:05.686Z,6.10
2022-12-14T01:35:52.075Z,5.15
2022-12-14T01:38:38.939Z,5.57
2022-12-14T01:41:32.777Z,6.32
2022-12-14T01:44:19.144Z,6.28
2022-12-14T01:47:15.619Z,5.88
2022-12-14T01:49:52.038Z,6.30
2022-12-14T01:52:29.006Z,6.47
2022-12-14T01:55:10.992Z,6.13
2022-12-14T01:57:52.680Z,4.85
2022-12-14T02:00:20.576Z,6.40
2022-12-14T02:02:59.028Z,7.68
2022-12-14T02:05:26.158Z,6.72
2022-12-14T02:07:55.333Z,6.22
2022-12-14T02:10:26.346Z,7.05
2022-12-14T02:13:02.745Z,7.20
2022-12-14T02:15:30.500Z,7.28
2022-12-14T02:17:57.536Z,6.03
2022-12-14T02:20:29.262Z,5.55
2022-12-14T02:23:17.554Z,6.63
2022-12-14T02:26:00.402Z,6.25
2022-12-14T02:29:06.331Z,6.68
2022-12-14T02:31:48.857Z,6.38
2022-12-14T02:34:38.379Z,7.03
2022-12-14T02:37:14.407Z,6.65
2022-12-14T02:39:49.924Z,6.28
2022-12-14T02:42:26.160Z,6.38
2022-12-14T02:45:09.366Z,6.93
2022-12-14T02:47:41.025Z,6.13
2022-12-14T02:50:25.904Z,6.38
2022-12-14T02:53:10.583Z,6.28
2022-12-14T02:55:46.348Z,6.57
2022-12-14T02:58:32.336Z,7.20
2022-12-14T03:00:59.741Z,6.65
2022-12-14T03:03:27.817Z,7.45
2022-12-14T03:05:56.518Z,6.95
2022-12-14T03:08:25.255Z,6.93
2022-12-14T03:11:06.874Z,6.53
2022-12-14T03:13:43.928Z,7.40
2022-12-14T03:16:22.354Z,7.00
2022-12-14T03:18:54.651Z,6.53
2022-12-14T03:21:36.334Z,7.15
2022-12-14T03:24:12.598Z,7.88
2022-12-14T03:26:48.003Z,7.07
2022-12-14T03:29:21.956Z,7.75
2022-12-14T03:31:54.949Z,7.30
2022-12-14T03:34:28.216Z,7.68
2022-12-14T03:37:16.056Z,8.00
2022-12-14T03:39:45.141Z,7.40
2022-12-14T03:42:21.277Z,7.90
2022-12-14T03:45:27.296Z,6.78
2022-12-14T03:48:24.783Z,7.10
2022-12-14T03:51:00.157Z,7.43
2022-12-14T03:53:47.441Z,7.07
2022-12-14T03:56:34.818Z,7.18
2022-12-14T03:59:11.519Z,7.93
2022-12-14T04:01:46.979Z,8.10
2022-12-14T04:04:26.519Z,7.78
2022-12-14T04:06:56.977Z,7.65
2022-12-14T04:09:42.555Z,8.02
2022-12-14T04:12:42.603Z,8.55
2022-12-14T04:15:35.585Z,8.00
2022-12-14T04:18:25.073Z,8.57
2022-12-14T04:20:58.521Z,8.00
2022-12-14T04:24:06.674Z,8.02
2022-12-14T04:26:39.460Z,8.13
2022-12-14T04:29:32.464Z,9.20
2022-12-14T04:32:08.049Z,8.43
2022-12-14T04:34:35.920Z,8.98
2022-12-14T04:37:09.490Z,8.60
2022-12-14T04:39:41.079Z,9.07
2022-12-14T04:42:10.327Z,9.52
2022-12-14T04:44:42.785Z,8.95
2022-12-14T04:47:13.625Z,8.75
2022-12-14T04:49:49.222Z,9.48
2022-12-14T04:52:21.327Z,9.45
2022-12-14T04:54:56.904Z,10.57
2022-12-14T04:57:35.933Z,10.35
2022-12-14T05:00:05.960Z,9.35
2022-12-14T05:03:01.036Z,10.23
2022-12-14T05:05:39.702Z,10.35
2022-12-14T05:08:18.389Z,8.75
2022-12-14T05:10:50.803Z,9.57
2022-12-14T05:13:36.060Z,10.30
2022-12-14T05:16:03.330Z,10.35
2022-12-14T05:18:29.912Z,9.85
2022-12-14T05:20:56.814Z,10.82
2022-12-14T05:23:23.558Z,11.32
2022-12-14T05:25:50.030Z,9.98
2022-12-14T05:28:17.038Z,10.82
2022-12-14T05:30:48.732Z,10.85
2022-12-14T05:33:19.655Z,12.07
2022-12-14T05:35:46.490Z,12.18
2022-12-14T05:38:13.603Z,12.18
2022-12-14T05:40:40.030Z,10.73
2022-12-14T05:43:08.137Z,11.18
2022-12-14T05:45:34.852Z,11.05
2022-12-14T05:48:01.364Z,11.63
2022-12-14T05:50:28.004Z,11.00
2022-12-14T05:52:55.738Z,12.05
2022-12-14T05:55:22.344Z,12.48
2022-12-14T05:57:48.768Z,12.82
2022-12-14T06:00:15.633Z,13.43
2022-12-14T06:02:42.174Z,12.60
2022-12-14T06:05:08.991Z,13.35
2022-12-14T06:07:35.882Z,13.40
2022-12-14T06:10:02.551Z,12.98
2022-12-14T06:12:29.560Z,13.48
2022-12-14T06:14:56.655Z,14.65
2022-12-14T06:17:23.106Z,15.63
2022-12-14T06:19:50.311Z,14.32
2022-12-14T06:22:17.998Z,15.15
2022-12-14T06:24:44.854Z,15.50
2022-12-14T06:27:11.299Z,17.25
2022-12-14T06:29:37.885Z,15.95
2022-12-14T06:32:04.507Z,16.85
2022-12-14T06:34:36.747Z,16.30
2022-12-14T06:37:06.179Z,17.55
2022-12-14T06:39:32.722Z,18.38
2022-12-14T06:41:59.466Z,17.88
2022-12-14T06:44:26.180Z,17.60
2022-12-14T06:46:55.935Z,18.08
2022-12-14T06:49:22.876Z,18.23
2022-12-14T06:51:49.562Z,18.60
2022-12-14T06:54:17.848Z,16.80
2022-12-14T06:56:46.863Z,16.92
2022-12-14T06:59:14.736Z,17.83
2022-12-14T07:01:42.388Z,18.00
2022-12-14T07:04:09.702Z,16.83
2022-12-14T07:06:39.504Z,16.50
2022-12-14T07:09:07.562Z,17.33
2022-12-14T07:11:34.509Z,15.85
2022-12-14T07:14:03.124Z,17.23
2022-12-14T07:16:29.742Z,17.23
2022-12-14T07:18:57.126Z,17.55
2022-12-14T07:21:24.586Z,16.80
2022-12-14T07:23:52.363Z,18.83
2022-12-14T07:26:27.470Z,17.40
2022-12-14T07:28:54.698Z,17.65
2022-12-14T07:31:23.786Z,18.30
2022-12-14T07:33:54.057Z,17.55
2022-12-14T07:36:22.463Z,17.13
2022-12-14T07:38:50.890Z,17.75
2022-12-14T07:41:25.997Z,17.88
2022-12-14T07:43:54.544Z,18.52
2022-12-14T07:46:24.173Z,16.73
2022-12-14T07:48:53.233Z,16.83
2022-12-14T07:51:22.676Z,16.67
2022-12-14T07:53:50.102Z,17.60
2022-12-14T07:56:25.359Z,17.52
2022-12-14T07:58:52.608Z,17.63
2022-12-14T08:01:23.417Z,17.27
2022-12-14T08:03:53.384Z,18.27
2022-12-14T08:06:21.433Z,16.98
2022-12-14T08:08:48.553Z,16.48
2022-12-14T08:11:17.938Z,17.10
2022-12-14T08:13:44.723Z,16.38
2022-12-14T08:16:14.131Z,18.00
2022-12-14T08:18:41.252Z,18.07
2022-12-14T08:21:10.022Z,18.30
2022-12-14T08:23:41.420Z,18.17
2022-12-14T08:26:08.025Z,18.33
2022-12-14T08:28:35.802Z,17.02
2022-12-14T08:31:11.287Z,17.90
2022-12-14T08:33:39.501Z,18.73
2022-12-14T08:36:14.082Z,18.45
2022-12-14T08:38:41.437Z,18.42
2022-12-14T08:41:10.517Z,18.75
2022-12-14T08:43:37.639Z,18.90
2022-12-14T08:46:05.083Z,18.95
2022-12-14T08:48:31.981Z,18.48
2022-12-14T08:51:07.251Z,17.55
2022-12-14T08:53:35.183Z,18.40
2022-12-14T08:56:23.250Z,19.33
2022-12-14T08:58:52.500Z,18.65
2022-12-14T09:01:25.731Z,18.80
2022-12-14T09:03:56.965Z,20.67
2022-12-14T09:06:27.994Z,18.77
2022-12-14T09:08:55.376Z,19.67
2022-12-14T09:11:22.804Z,22.25
2022-12-14T09:13:54.126Z,21.10
2022-12-14T09:16:21.988Z,20.58
2022-12-14T09:18:49.504Z,20.33
2022-12-14T09:21:16.537Z,20.83
2022-12-14T09:23:43.682Z,22.90
2022-12-14T09:26:18.846Z,21.25
2022-12-14T09:28:51.762Z,22.60
2022-12-14T09:31:21.245Z,21.88
2022-12-14T09:33:48.170Z,22.80
2022-12-14T09:36:21.150Z,21.00
2022-12-14T09:38:51.916Z,19.65
2022-12-14T09:41:34.330Z,21.05
2022-12-14T09:44:19.767Z,21.58
2022-12-14T09:47:11.037Z,21.73
2022-12-14T09:49:46.583Z,20.77
2022-12-14T09:52:17.636Z,21.08
2022-12-14T09:54:45.977Z,22.27
2022-12-14T09:57:35.136Z,21.98
2022-12-14T10:00:02.075Z,20.33
2022-12-14T10:02:52.959Z,21.10
2022-12-14T10:05:31.736Z,22.10
2022-12-14T10:08:03.114Z,22.08
2022-12-14T10:10:42.784Z,20.83
2022-12-14T10:13:15.481Z,20.27
2022-12-14T10:16:00.316Z,21.05
2022-12-14T10:19:02.965Z,20.08
2022-12-14T10:21:50.141Z,19.48
2022-12-14T10:24:27.736Z,19.45
2022-12-14T10:26:55.637Z,19.20
2022-12-14T10:29:32.832Z,20.40
2022-12-14T10:32:21.280Z,21.45
2022-12-14T10:34:48.305Z,19.83
2022-12-14T10:37:35.914Z,19.65
2022-12-14T10:40:15.490Z,20.10
2022-12-14T10:42:49.618Z,18.80
2022-12-14T10:45:40.232Z,18.58
2022-12-14T10:48:29.811Z,18.92
2022-12-14T10:51:08.276Z,20.23
2022-12-14T10:53:44.661Z,19.23
2022-12-14T10:56:19.271Z,20.40
2022-12-14T10:59:17.910Z,20.20
2022-12-14T11:01:46.800Z,19.00
2022-12-14T11:04:36.092Z,17.67
2022-12-14T11:07:08.789Z,18.48
2022-12-14T11:09:37.073Z,19.35
2022-12-14T11:12:25.984Z,18.92
2022-12-14T11:15:01.947Z,19.73
2022-12-14T11:17:35.952Z,19.65
2022-12-14T11:20:24.371Z,19.75
2022-12-14T11:22:52.766Z,20.42
2022-12-14T11:25:30.412Z,20.52
2022-12-14T11:28:00.100Z,19.15
2022-12-14T11:30:29.209Z,19.02
2022-12-14T11:32:55.932Z,19.60
2022-12-14T11:35:23.018Z,19.58
2022-12-14T11:37:50.789Z,19.00
2022-12-14T11:40:27.797Z,19.60
2022-12-14T11:43:01.949Z,18.73
2022-12-14T11:45:36.067Z,19.13
2022-12-14T11:48:14.768Z,18.95
2022-12-14T11:50:43.142Z,19.65
2022-12-14T11:53:12.609Z,18.58
2022-12-14T11:55:44.176Z,19.00
2022-12-14T11:58:23.955Z,18.02
2022-12-14T12:00:55.385Z,18.00
2022-12-14T12:03:31.131Z,17.02
2022-12-14T12:06:10.943Z,16.60
2022-12-14T12:08:40.232Z,19.17
2022-12-14T12:11:19.610Z,18.40
2022-12-14T12:13:51.402Z,18.42
2022-12-14T12:16:22.095Z,17.95
2022-12-14T12:18:54.667Z,18.73
2022-12-14T12:21:24.233Z,17.20
2022-12-14T12:24:20.949Z,17.25
2022-12-14T12:26:57.387Z,15.63
2022-12-14T12:29:35.085Z,18.23
2022-12-14T12:32:10.260Z,16.80
2022-12-14T12:34:54.223Z,18.20
2022-12-14T12:37:47.520Z,16.67
2022-12-14T12:40:34.985Z,17.17
2022-12-14T12:43:25.429Z,17.55
2022-12-14T12:45:59.671Z,15.98
2022-12-14T12:48:32.286Z,16.73
2022-12-14T12:51:04.434Z,17.90
2022-12-14T12:53:39.006Z,17.73
2022-12-14T12:56:14.713Z,16.98
2022-12-14T12:58:50.614Z,18.05
2022-12-14T13:01:36.146Z,16.75
2022-12-14T13:04:06.644Z,18.17
2022-12-14T13:06:44.423Z,17.58
2022-12-14T13:09:35.219Z,17.55
2022-12-14T13:12:05.487Z,17.75
2022-12-14T13:14:37.291Z,17.88
2022-12-14T13:17:07.895Z,18.92
2022-12-14T13:19:52.543Z,19.02
2022-12-14T13:22:31.174Z,19.60
2022-12-14T13:25:03.271Z,20.23
2022-12-14T13:28:16.526Z,19.75
2022-12-14T13:31:27.791Z,19.83
2022-12-14T13:34:03.588Z,20.63
2022-12-14T13:37:14.522Z,20.00
2022-12-14T13:39:50.798Z,21.15
2022-12-14T13:42:51.923Z,20.17
2022-12-14T13:45:23.042Z,19.67
2022-12-14T13:47:54.655Z,20.08
2022-12-14T13:50:40.667Z,20.15
2022-12-14T13:53:16.354Z,21.53
2022-12-14T13:55:49.324Z,19.80
2022-12-14T13:58:32.168Z,22.15
2022-12-14T14:01:02.436Z,18.83
2022-12-14T14:03:35.364Z,19.02
2022-12-14T14:06:11.694Z,21.40
2022-12-14T14:08:42.913Z,21.20
2022-12-14T14:11:36.798Z,20.70
2022-12-14T14:14:46.744Z,20.48
2022-12-14T14:17:28.202Z,21.30
2022-12-14T14:19:57.960Z,21.17
2022-12-14T14:22:28.933Z,20.88
2022-12-14T14:25:02.066Z,20.65
2022-12-14T14:27:37.537Z,20.95
2022-12-14T14:30:32.722Z,21.00
2022-12-14T14:33:27.314Z,21.60
2022-12-14T14:35:49.709Z,20.42
2022-12-14T14:38:30.963Z,22.27
2022-12-14T14:41:18.021Z,20.05
2022-12-14T14:44:00.164Z,21.60
2022-12-14T14:46:41.351Z,19.73
2022-12-14T14:49:22.937Z,19.33
2022-12-14T14:51:50.517Z,18.98
2022-12-14T14:54:56.137Z,18.88
2022-12-14T14:57:33.323Z,20.00
2022-12-14T15:00:06.385Z,18.00
2022-12-14T15:02:38.534Z,18.27
2022-12-14T15:05:33.020Z,18.10
2022-12-14T15:07:56.023Z,17.83
2022-12-14T15:10:36.578Z,18.55
2022-12-14T15:15:43.027Z,19.10
2022-12-14T15:18:23.732Z,18.08
2022-12-14T15:20:58.011Z,19.30
2022-12-14T15:23:25.683Z,17.08
2022-12-14T15:26:01.675Z,16.52
2022-12-14T15:28:29.815Z,18.15
2022-12-14T15:30:58.288Z,16.55
2022-12-14T15:33:35.533Z,16.45
2022-12-14T15:36:14.180Z,15.85
2022-12-14T15:38:51.223Z,16.88
2022-12-14T15:41:18.755Z,16.58
2022-12-14T15:43:48.326Z,18.30
2022-12-14T15:46:25.745Z,17.10
2022-12-14T15:49:21.557Z,18.33
2022-12-14T15:51:49.017Z,17.30
2022-12-14T15:54:22.277Z,18.63
2022-12-14T15:56:53.108Z,17.05
2022-12-14T15:59:29.508Z,17.65
2022-12-14T16:02:23.819Z,17.58
2022-12-14T16:04:52.152Z,17.73
2022-12-14T16:07:28.267Z,16.73
2022-12-14T16:09:58.773Z,16.52
2022-12-14T16:12:42.761Z,16.80
2022-12-14T16:15:19.428Z,18.90
2022-12-14T16:17:46.352Z,17.55
2022-12-14T16:20:43.971Z,16.42
2022-12-14T16:23:14.686Z,18.75
2022-12-14T16:25:51.548Z,17.33
2022-12-14T16:28:22.068Z,17.58
2022-12-14T16:31:00.688Z,17.48
2022-12-14T16:33:29.332Z,18.30
2022-12-14T16:36:25.568Z,17.80
2022-12-14T16:39:02.807Z,17.48
2022-12-14T16:41:42.339Z,15.75
2022-12-14T16:44:22.859Z,18.70
2022-12-14T16:49:55.443Z,16.75
2022-12-14T16:52:40.143Z,17.90
2022-12-14T16:55:09.830Z,17.52
2022-12-14T16:57:40.378Z,16.77
2022-12-14T17:00:21.357Z,17.05
2022-12-14T17:02:58.233Z,16.55
2022-12-14T17:05:28.581Z,17.52
2022-12-14T17:07:55.021Z,17.23
2022-12-14T17:10:24.017Z,17.45
2022-12-14T17:12:52.073Z,17.35
2022-12-14T17:15:21.758Z,16.05
2022-12-14T17:17:53.381Z,18.90
2022-12-14T17:20:29.892Z,18.23
2022-12-14T17:22:58.623Z,16.27
2022-12-14T17:25:30.398Z,17.33
2022-12-14T17:27:57.107Z,17.35
2022-12-14T17:30:24.387Z,17.65
2022-12-14T17:32:53.331Z,19.10
2022-12-14T17:35:26.017Z,17.15
2022-12-14T17:37:52.561Z,18.42
2022-12-14T17:40:19.274Z,17.83
2022-12-14T17:42:51.318Z,18.70
2022-12-14T17:45:22.359Z,17.83
2022-12-14T17:47:49.073Z,17.88
2022-12-14T17:50:17.079Z,16.75
2022-12-14T17:52:43.904Z,17.17
2022-12-14T17:55:19.251Z,17.83
2022-12-14T17:57:47.149Z,16.58
2022-12-14T18:00:44.088Z,17.55
2022-12-14T18:03:12.643Z,18.33
2022-12-14T18:05:46.451Z,16.73
2022-12-14T18:08:16.866Z,17.73
2022-12-14T18:10:43.966Z,19.15
2022-12-14T18:13:12.297Z,19.30
2022-12-14T18:15:42.407Z,18.63
2022-12-14T18:18:09.031Z,18.25
2022-12-14T18:20:37.093Z,16.92
2022-12-14T18:23:03.999Z,17.30
2022-12-14T18:25:40.575Z,18.35
2022-12-14T18:28:11.455Z,17.67
2022-12-14T18:30:45.982Z,17.30
2022-12-14T18:33:18.523Z,17.60
2022-12-14T18:35:46.091Z,17.30
2022-12-14T18:38:12.863Z,18.10
2022-12-14T18:40:41.895Z,17.67
2022-12-14T18:43:21.165Z,17.58
2022-12-14T18:45:47.709Z,16.45
2022-12-14T18:48:14.465Z,17.05
2022-12-14T18:50:43.074Z,17.08
2022-12-14T18:53:15.333Z,17.33
2022-12-14T18:55:42.612Z,16.80
2022-12-14T18:58:15.310Z,17.30
2022-12-14T19:00:41.893Z,18.13
2022-12-14T19:03:08.526Z,17.77
2022-12-14T19:05:35.144Z,20.75
2022-12-14T19:08:01.749Z,18.90
2022-12-14T19:10:31.830Z,18.75
2022-12-14T19:12:58.761Z,18.13
2022-12-14T19:15:31.295Z,17.60
2022-12-14T19:17:58.181Z,17.13
2022-12-14T19:20:25.907Z,18.23
2022-12-14T19:22:53.022Z,18.05
2022-12-14T19:25:22.708Z,17.85
2022-12-14T19:30:36.906Z,18.13
2022-12-14T19:33:03.856Z,16.88
2022-12-14T19:35:31.711Z,18.35
2022-12-14T19:37:58.803Z,17.95
2022-12-14T19:40:26.197Z,17.35
2022-12-14T19:42:52.686Z,19.00
2022-12-14T19:45:20.040Z,18.48
2022-12-14T19:47:46.529Z,18.23
2022-12-14T19:50:15.083Z,17.23
2022-12-14T19:52:43.177Z,18.25
2022-12-14T19:55:11.234Z,17.60
2022-12-14T19:57:39.488Z,18.17
2022-12-14T20:00:08.077Z,18.88
2022-12-14T20:02:38.281Z,17.77
2022-12-14T20:05:05.762Z,17.42
2022-12-14T20:07:32.267Z,17.30
2022-12-14T20:09:58.745Z,17.30
2022-12-14T20:12:25.384Z,18.13
2022-12-14T20:14:51.890Z,19.83
2022-12-14T20:17:18.390Z,19.92
2022-12-14T20:19:45.173Z,20.17
2022-12-14T20:22:14.590Z,18.80
2022-12-14T20:24:42.217Z,19.25
2022-12-14T20:27:08.713Z,19.45
2022-12-14T20:29:35.167Z,20.95
2022-12-14T20:32:02.190Z,19.30
2022-12-14T20:34:29.179Z,18.88
2022-12-14T20:36:55.874Z,19.73
2022-12-14T20:39:22.464Z,18.67
2022-12-14T20:41:49.134Z,20.25
2022-12-14T20:44:16.174Z,20.95
2022-12-14T20:46:45.516Z,19.98
2022-12-14T20:49:15.278Z,20.63
2022-12-14T20:51:42.722Z,19.70
2022-12-14T20:54:12.896Z,20.33
2022-12-14T20:56:40.049Z,19.40
2022-12-14T20:59:08.409Z,20.90
2022-12-14T21:01:39.975Z,20.58
2022-12-14T21:04:07.120Z,20.92
2022-12-14T21:06:38.013Z,23.20
2022-12-14T21:09:05.640Z,21.33
2022-12-14T21:11:55.514Z,21.20
2022-12-14T21:14:24.606Z,21.55
2022-12-14T21:16:51.583Z,21.15
2022-12-14T21:19:18.182Z,23.38
2022-12-14T21:21:49.898Z,24.10
2022-12-14T21:24:37.468Z,22.92
2022-12-14T21:27:08.499Z,23.27
2022-12-14T21:29:35.093Z,23.88
2022-12-14T21:32:01.637Z,23.83
2022-12-14T21:34:28.146Z,24.42
2022-12-14T21:36:54.586Z,22.33
2022-12-14T21:39:21.068Z,22.30
2022-12-14T21:42:06.231Z,23.15
2022-12-14T21:44:36.323Z,20.85
2022-12-14T21:47:05.383Z,22.30
2022-12-14T21:49:31.773Z,21.48
2022-12-14T21:51:58.619Z,21.23
2022-12-14T21:54:26.072Z,22.92
2022-12-14T21:57:11.801Z,23.48
2022-12-14T21:59:46.332Z,21.88
2022-12-14T22:02:21.905Z,21.92
2022-12-14T22:04:49.468Z,23.83
2022-12-14T22:07:18.010Z,22.50
2022-12-14T22:09:45.324Z,23.40
2022-12-14T22:12:18.182Z,23.60
2022-12-14T22:14:44.637Z,26.83
2022-12-14T22:17:13.504Z,22.73
2022-12-14T22:19:41.082Z,24.38
2022-12-14T22:22:15.064Z,23.75
2022-12-14T22:24:43.163Z,25.35
2022-12-14T22:27:11.558Z,23.40
2022-12-14T22:29:38.171Z,26.13
2022-12-14T22:32:05.345Z,22.98
2022-12-14T22:34:31.814Z,24.25
2022-12-14T22:36:58.323Z,23.92
2022-12-14T22:39:24.814Z,27.23
2022-12-14T22:41:51.304Z,24.52
2022-12-14T22:44:17.920Z,22.80
2022-12-14T22:46:44.420Z,23.98
2022-12-14T22:49:16.474Z,23.60
2022-12-14T22:51:43.239Z,23.55
2022-12-14T22:54:17.021Z,24.70
2022-12-14T22:56:48.502Z,24.27
2022-12-14T22:59:19.527Z,25.90
2022-12-14T23:01:49.927Z,24.55
2022-12-14T23:04:18.156Z,26.10
2022-12-14T23:06:44.922Z,25.10
2022-12-14T23:09:30.185Z,24.23
2022-12-14T23:12:21.322Z,22.80
2022-12-14T23:15:07.592Z,24.27
2022-12-14T23:17:53.191Z,24.13
2022-12-14T23:20:38.385Z,25.10
2022-12-14T23:23:24.959Z,23.88
2022-12-14T23:26:10.142Z,23.10
2022-12-14T23:28:55.250Z,24.10
2022-12-14T23:31:40.436Z,24.02
2022-12-14T23:34:25.474Z,23.40
2022-12-14T23:37:13.724Z,24.95
2022-12-14T23:40:01.647Z,25.13
2022-12-14T23:42:47.350Z,25.70
2022-12-14T23:45:32.786Z,24.15
2022-12-14T23:48:18.134Z,24.90
2022-12-14T23:51:04.081Z,24.08
2022-12-14T23:53:49.967Z,24.35
2022-12-14T23:56:35.573Z,24.48
2022-12-14T23:59:24.974Z,25.20
